Skip Navigation Links Skip Navigation Links

Current Weather

La Porte Muni, La Porte, Ind.

For information only: do not use for flight planning or navigation.
Latest weather
Observation time Sunday, May 31, 2020 8:55 AM CDT
Local time Sunday, May 31, 2020 9:14 AM CDT
Flight conditions Visual Meteorological Conditions
Winds
Wind direction East (90°)
Wind speed 9 mph
Visibility 10 mi.
Sky condition
Ceiling unlimited
Sky clear
Temperature 55°F
Dewpoint 36°F
Altimeter 30.38 in.Hg
Derived measurements
Relative humidity 49%
Density altitude 124 ft.
Remarks
Fully automated report.
Automated weather observing station with precipitation discriminator.
METAR KPPO 311355Z AUTO 09008KT 10SM CLR 13/02 A3038 RMK AO2 T01270022

Settings

Location code

InnerDrive.Weather 4.0.6770.0 Release CLR 4.0.30319.42000
Copyright ©2018 Inner Drive Technology. All rights reserved. Portions Copyright ©1986-2018 David Braverman.

Find weather

Site navigation


Skip Navigation Links

Place info

Page info

PayPal - The safer, easier way to pay online!

Return home.

Copyright ©2020 Inner Drive Technology. Purveyors of fine, hand-crafted computer software. Page printed 2020-05-31T14:14:54 UTC.